sensor_id;sensor_type;location;lat;lon;timestamp;temperature;humidity
6903;DHT22;20232;49.408;8.702;2022-11-11T05:00:57;6.50;99.90
6903;DHT22;20232;49.408;8.702;2022-11-11T05:03:23;6.50;99.90
6903;DHT22;20232;49.408;8.702;2022-11-11T05:05:54;6.40;99.90
6903;DHT22;20232;49.408;8.702;2022-11-11T05:08:40;6.40;99.90
6903;DHT22;20232;49.408;8.702;2022-11-11T05:11:29;6.40;99.90
6903;DHT22;20232;49.408;8.702;2022-11-11T05:14:03;6.50;99.90
6903;DHT22;20232;49.408;8.702;2022-11-11T05:16:55;6.50;99.90
6903;DHT22;20232;49.408;8.702;2022-11-11T05:19:40;6.50;99.90
6903;DHT22;20232;49.408;8.702;2022-11-11T05:22:32;6.50;99.90
6903;DHT22;20232;49.408;8.702;2022-11-11T05:24:59;6.40;99.90
6903;DHT22;20232;49.408;8.702;2022-11-11T05:27:43;6.40;99.90
6903;DHT22;20232;49.408;8.702;2022-11-11T05:30:10;6.40;99.90
6903;DHT22;20232;49.408;8.702;2022-11-11T05:32:37;6.40;99.90
6903;DHT22;20232;49.408;8.702;2022-11-11T05:35:04;6.40;99.90
6903;DHT22;20232;49.408;8.702;2022-11-11T05:37:29;6.40;99.90
6903;DHT22;20232;49.408;8.702;2022-11-11T05:39:55;6.40;99.90
6903;DHT22;20232;49.408;8.702;2022-11-11T05:42:21;6.50;99.90
6903;DHT22;20232;49.408;8.702;2022-11-11T05:44:46;6.40;99.90
6903;DHT22;20232;49.408;8.702;2022-11-11T05:47:12;6.40;99.90
6903;DHT22;20232;49.408;8.702;2022-11-11T05:49:37;6.40;99.90
6903;DHT22;20232;49.408;8.702;2022-11-11T05:52:04;6.50;99.90
6903;DHT22;20232;49.408;8.702;2022-11-11T05:54:30;6.50;99.90
6903;DHT22;20232;49.408;8.702;2022-11-11T05:56:55;6.50;99.90
6903;DHT22;20232;49.408;8.702;2022-11-11T05:59:21;6.40;99.90
6903;DHT22;20232;49.408;8.702;2022-11-11T06:01:47;6.40;99.90
6903;DHT22;20232;49.408;8.702;2022-11-11T06:04:12;6.40;99.90
6903;DHT22;20232;49.408;8.702;2022-11-11T06:06:38;6.40;99.90
6903;DHT22;20232;49.408;8.702;2022-11-11T06:09:04;6.40;99.90
6903;DHT22;20232;49.408;8.702;2022-11-11T06:11:30;6.40;99.90
6903;DHT22;20232;49.408;8.702;2022-11-11T06:13:55;6.40;99.90
6903;DHT22;20232;49.408;8.702;2022-11-11T06:16:21;6.50;99.90
6903;DHT22;20232;49.408;8.702;2022-11-11T06:18:48;6.50;99.90
6903;DHT22;20232;49.408;8.702;2022-11-11T06:21:14;6.50;99.90
6903;DHT22;20232;49.408;8.702;2022-11-11T06:23:39;6.50;99.90
6903;DHT22;20232;49.408;8.702;2022-11-11T06:26:05;6.50;99.90
6903;DHT22;20232;49.408;8.702;2022-11-11T06:28:54;6.50;99.90
6903;DHT22;20232;49.408;8.702;2022-11-11T06:31:24;6.50;99.90
6903;DHT22;20232;49.408;8.702;2022-11-11T06:33:50;6.40;99.90
6903;DHT22;20232;49.408;8.702;2022-11-11T06:36:18;6.40;99.90
6903;DHT22;20232;49.408;8.702;2022-11-11T06:38:44;6.40;99.90
6903;DHT22;20232;49.408;8.702;2022-11-11T06:41:10;6.40;99.90
6903;DHT22;20232;49.408;8.702;2022-11-11T06:43:38;6.40;99.90
6903;DHT22;20232;49.408;8.702;2022-11-11T06:46:03;6.40;99.90
6903;DHT22;20232;49.408;8.702;2022-11-11T06:48:29;6.40;99.90
6903;DHT22;20232;49.408;8.702;2022-11-11T06:51:01;6.40;99.90
6903;DHT22;20232;49.408;8.702;2022-11-11T06:53:28;6.30;99.90
6903;DHT22;20232;49.408;8.702;2022-11-11T06:55:54;6.50;99.90
6903;DHT22;20232;49.408;8.702;2022-11-11T06:58:20;6.60;99.90
6903;DHT22;20232;49.408;8.702;2022-11-11T07:00:47;6.80;99.90
6903;DHT22;20232;49.408;8.702;2022-11-11T07:03:14;6.80;99.90
6903;DHT22;20232;49.408;8.702;2022-11-11T07:05:41;6.90;99.90
6903;DHT22;20232;49.408;8.702;2022-11-11T07:08:10;6.80;99.90
6903;DHT22;20232;49.408;8.702;2022-11-11T07:10:37;6.90;99.90
6903;DHT22;20232;49.408;8.702;2022-11-11T07:13:04;6.90;99.90
6903;DHT22;20232;49.408;8.702;2022-11-11T07:15:31;6.90;99.90
6903;DHT22;20232;49.408;8.702;2022-11-11T07:17:56;6.90;99.90
6903;DHT22;20232;49.408;8.702;2022-11-11T07:20:22;6.90;99.90
6903;DHT22;20232;49.408;8.702;2022-11-11T07:22:48;6.90;99.90
6903;DHT22;20232;49.408;8.702;2022-11-11T07:25:14;6.90;99.90
6903;DHT22;20232;49.408;8.702;2022-11-11T07:27:40;6.90;99.90
6903;DHT22;20232;49.408;8.702;2022-11-11T07:30:07;6.80;99.90
6903;DHT22;20232;49.408;8.702;2022-11-11T07:32:33;6.70;99.90
6903;DHT22;20232;49.408;8.702;2022-11-11T07:34:59;6.70;99.90
6903;DHT22;20232;49.408;8.702;2022-11-11T07:37:25;6.80;99.90
6903;DHT22;20232;49.408;8.702;2022-11-11T07:39:50;6.90;99.90
6903;DHT22;20232;49.408;8.702;2022-11-11T07:42:16;7.00;99.90
6903;DHT22;20232;49.408;8.702;2022-11-11T07:44:42;7.20;99.90
6903;DHT22;20232;49.408;8.702;2022-11-11T07:47:08;7.20;99.90
6903;DHT22;20232;49.408;8.702;2022-11-11T07:49:33;7.20;99.90
6903;DHT22;20232;49.408;8.702;2022-11-11T07:51:59;7.20;99.90
6903;DHT22;20232;49.408;8.702;2022-11-11T07:54:25;7.20;99.90
6903;DHT22;20232;49.408;8.702;2022-11-11T07:56:50;7.20;99.90
6903;DHT22;20232;49.408;8.702;2022-11-11T07:59:16;7.30;99.90
6903;DHT22;20232;49.408;8.702;2022-11-11T08:01:41;7.40;99.90
6903;DHT22;20232;49.408;8.702;2022-11-11T08:04:07;7.40;99.90
6903;DHT22;20232;49.408;8.702;2022-11-11T08:06:32;7.60;99.90
6903;DHT22;20232;49.408;8.702;2022-11-11T08:08:58;7.70;99.90
6903;DHT22;20232;49.408;8.702;2022-11-11T08:11:24;7.80;99.90
6903;DHT22;20232;49.408;8.702;2022-11-11T08:14:08;7.90;99.90
6903;DHT22;20232;49.408;8.702;2022-11-11T08:16:34;8.10;99.90
6903;DHT22;20232;49.408;8.702;2022-11-11T08:18:59;8.10;99.90
6903;DHT22;20232;49.408;8.702;2022-11-11T08:21:25;8.30;99.90
6903;DHT22;20232;49.408;8.702;2022-11-11T08:23:52;8.40;99.90
6903;DHT22;20232;49.408;8.702;2022-11-11T08:26:18;8.40;99.90
6903;DHT22;20232;49.408;8.702;2022-11-11T08:28:44;8.40;99.90
6903;DHT22;20232;49.408;8.702;2022-11-11T08:31:10;8.50;99.90
6903;DHT22;20232;49.408;8.702;2022-11-11T08:33:35;8.50;99.90
6903;DHT22;20232;49.408;8.702;2022-11-11T08:36:02;8.60;99.90
6903;DHT22;20232;49.408;8.702;2022-11-11T08:38:28;8.50;99.90
6903;DHT22;20232;49.408;8.702;2022-11-11T08:40:53;8.50;99.90
6903;DHT22;20232;49.408;8.702;2022-11-11T08:43:19;8.60;99.90
6903;DHT22;20232;49.408;8.702;2022-11-11T08:45:45;8.60;99.90
6903;DHT22;20232;49.408;8.702;2022-11-11T08:48:11;8.50;99.90
6903;DHT22;20232;49.408;8.702;2022-11-11T08:50:38;8.60;99.90
6903;DHT22;20232;49.408;8.702;2022-11-11T08:53:06;8.60;99.90
6903;DHT22;20232;49.408;8.702;2022-11-11T08:55:33;8.70;99.90
6903;DHT22;20232;49.408;8.702;2022-11-11T08:58:01;8.80;99.90
6903;DHT22;20232;49.408;8.702;2022-11-11T09:00:27;8.80;99.90
6903;DHT22;20232;49.408;8.702;2022-11-11T09:02:53;8.90;99.90
6903;DHT22;20232;49.408;8.702;2022-11-11T09:05:18;9.10;99.90
6903;DHT22;20232;49.408;8.702;2022-11-11T09:07:44;9.20;99.90
6903;DHT22;20232;49.408;8.702;2022-11-11T09:10:10;9.20;99.90
6903;DHT22;20232;49.408;8.702;2022-11-11T09:12:36;9.40;99.90
6903;DHT22;20232;49.408;8.702;2022-11-11T09:15:01;9.40;99.90
6903;DHT22;20232;49.408;8.702;2022-11-11T09:17:27;9.40;99.90
6903;DHT22;20232;49.408;8.702;2022-11-11T09:19:53;9.40;99.90
6903;DHT22;20232;49.408;8.702;2022-11-11T09:22:19;9.40;99.90
6903;DHT22;20232;49.408;8.702;2022-11-11T09:24:44;9.40;99.90
6903;DHT22;20232;49.408;8.702;2022-11-11T09:27:10;9.40;99.90
6903;DHT22;20232;49.408;8.702;2022-11-11T09:29:36;9.40;99.90
6903;DHT22;20232;49.408;8.702;2022-11-11T09:32:02;9.40;99.90
6903;DHT22;20232;49.408;8.702;2022-11-11T09:34:28;9.40;99.90
6903;DHT22;20232;49.408;8.702;2022-11-11T09:36:53;9.40;99.90
6903;DHT22;20232;49.408;8.702;2022-11-11T09:39:19;9.50;99.90
6903;DHT22;20232;49.408;8.702;2022-11-11T09:44:54;9.60;99.90
6903;DHT22;20232;49.408;8.702;2022-11-11T09:50:20;9.60;99.90
6903;DHT22;20232;49.408;8.702;2022-11-11T09:53:10;9.60;99.90
6903;DHT22;20232;49.408;8.702;2022-11-11T09:55:42;9.60;99.90
6903;DHT22;20232;49.408;8.702;2022-11-11T09:58:21;9.60;99.90
6903;DHT22;20232;49.408;8.702;2022-11-11T10:00:57;9.70;99.90
6903;DHT22;20232;49.408;8.702;2022-11-11T10:03:24;9.70;99.90
6903;DHT22;20232;49.408;8.702;2022-11-11T10:06:02;9.70;99.90
6903;DHT22;20232;49.408;8.702;2022-11-11T10:08:35;9.60;99.90
6903;DHT22;20232;49.408;8.702;2022-11-11T10:11:04;9.60;99.90
6903;DHT22;20232;49.408;8.702;2022-11-11T10:13:36;9.60;99.90
6903;DHT22;20232;49.408;8.702;2022-11-11T10:19:09;9.80;99.90
6903;DHT22;20232;49.408;8.702;2022-11-11T10:21:44;9.90;99.90
6903;DHT22;20232;49.408;8.702;2022-11-11T10:24:24;10.00;99.90
6903;DHT22;20232;49.408;8.702;2022-11-11T10:26:51;10.10;99.90
6903;DHT22;20232;49.408;8.702;2022-11-11T10:29:18;10.30;99.90
6903;DHT22;20232;49.408;8.702;2022-11-11T10:32:01;10.40;99.90
6903;DHT22;20232;49.408;8.702;2022-11-11T10:34:32;10.50;99.90
6903;DHT22;20232;49.408;8.702;2022-11-11T10:36:58;10.70;99.90
6903;DHT22;20232;49.408;8.702;2022-11-11T10:39:37;10.80;99.90
6903;DHT22;20232;49.408;8.702;2022-11-11T10:42:14;10.90;99.90
6903;DHT22;20232;49.408;8.702;2022-11-11T10:44:41;10.90;99.90
6903;DHT22;20232;49.408;8.702;2022-11-11T10:47:37;11.00;99.90
6903;DHT22;20232;49.408;8.702;2022-11-11T10:52:48;11.10;99.90
6903;DHT22;20232;49.408;8.702;2022-11-11T10:55:35;11.10;99.90
6903;DHT22;20232;49.408;8.702;2022-11-11T10:58:11;11.10;99.90
6903;DHT22;20232;49.408;8.702;2022-11-11T11:00:43;11.10;99.90
6903;DHT22;20232;49.408;8.702;2022-11-11T11:03:19;11.20;99.90
6903;DHT22;20232;49.408;8.702;2022-11-11T11:06:05;11.30;99.90
6903;DHT22;20232;49.408;8.702;2022-11-11T11:08:38;11.30;99.90
6903;DHT22;20232;49.408;8.702;2022-11-11T11:11:27;11.30;99.90
6903;DHT22;20232;49.408;8.702;2022-11-11T11:13:59;11.20;99.90
6903;DHT22;20232;49.408;8.702;2022-11-11T11:16:31;11.00;99.90
6903;DHT22;20232;49.408;8.702;2022-11-11T11:19:14;11.10;99.90
6903;DHT22;20232;49.408;8.702;2022-11-11T11:21:51;11.20;99.90
6903;DHT22;20232;49.408;8.702;2022-11-11T11:24:25;11.30;99.90
6903;DHT22;20232;49.408;8.702;2022-11-11T11:26:53;11.40;99.90
6903;DHT22;20232;49.408;8.702;2022-11-11T11:29:26;11.60;99.90
6903;DHT22;20232;49.408;8.702;2022-11-11T11:31:53;11.60;99.90
6903;DHT22;20232;49.408;8.702;2022-11-11T11:34:18;11.70;99.90
6903;DHT22;20232;49.408;8.702;2022-11-11T11:36:58;11.60;99.90
6903;DHT22;20232;49.408;8.702;2022-11-11T11:39:38;11.70;99.90
6903;DHT22;20232;49.408;8.702;2022-11-11T11:42:04;11.80;99.90
6903;DHT22;20232;49.408;8.702;2022-11-11T11:44:35;11.80;99.90
6903;DHT22;20232;49.408;8.702;2022-11-11T11:47:35;11.80;99.90
6903;DHT22;20232;49.408;8.702;2022-11-11T11:50:34;11.70;99.90
6903;DHT22;20232;49.408;8.702;2022-11-11T11:53:05;11.60;99.90
6903;DHT22;20232;49.408;8.702;2022-11-11T11:55:36;11.40;99.90
6903;DHT22;20232;49.408;8.702;2022-11-11T12:07:04;11.20;99.90
6903;DHT22;20232;49.408;8.702;2022-11-11T12:09:56;11.10;99.90
6903;DHT22;20232;49.408;8.702;2022-11-11T12:12:43;11.10;99.90
6903;DHT22;20232;49.408;8.702;2022-11-11T12:15:18;11.00;99.90
6903;DHT22;20232;49.408;8.702;2022-11-11T12:18:09;11.00;99.90
6903;DHT22;20232;49.408;8.702;2022-11-11T12:20:50;11.00;99.90
6903;DHT22;20232;49.408;8.702;2022-11-11T12:23:37;11.10;99.90
6903;DHT22;20232;49.408;8.702;2022-11-11T12:26:22;11.10;99.90
6903;DHT22;20232;49.408;8.702;2022-11-11T12:34:11;11.20;99.90
6903;DHT22;20232;49.408;8.702;2022-11-11T12:42:23;11.10;99.90
6903;DHT22;20232;49.408;8.702;2022-11-11T12:47:52;11.20;99.90
6903;DHT22;20232;49.408;8.702;2022-11-11T12:50:35;11.30;99.90
6903;DHT22;20232;49.408;8.702;2022-11-11T12:56:14;11.30;99.90
6903;DHT22;20232;49.408;8.702;2022-11-11T12:58:47;11.40;99.90
6903;DHT22;20232;49.408;8.702;2022-11-11T13:01:54;11.50;99.90
6903;DHT22;20232;49.408;8.702;2022-11-11T13:04:42;11.60;99.90
6903;DHT22;20232;49.408;8.702;2022-11-11T13:07:35;11.70;99.90
6903;DHT22;20232;49.408;8.702;2022-11-11T13:10:26;11.80;99.90
6903;DHT22;20232;49.408;8.702;2022-11-11T13:15:55;12.00;99.90
6903;DHT22;20232;49.408;8.702;2022-11-11T13:18:27;12.10;99.90
6903;DHT22;20232;49.408;8.702;2022-11-11T13:21:01;12.20;99.90
6903;DHT22;20232;49.408;8.702;2022-11-11T13:23:28;12.20;99.90
6903;DHT22;20232;49.408;8.702;2022-11-11T13:25:57;12.30;99.90
6903;DHT22;20232;49.408;8.702;2022-11-11T13:28:33;12.40;99.90
6903;DHT22;20232;49.408;8.702;2022-11-11T13:33:42;12.00;99.90
6903;DHT22;20232;49.408;8.702;2022-11-11T13:36:12;12.10;99.90
6903;DHT22;20232;49.408;8.702;2022-11-11T13:38:50;12.00;99.90
6903;DHT22;20232;49.408;8.702;2022-11-11T13:41:32;11.90;99.90
6903;DHT22;20232;49.408;8.702;2022-11-11T13:44:01;11.80;99.90
6903;DHT22;20232;49.408;8.702;2022-11-11T13:48:56;11.50;99.90
6903;DHT22;20232;49.408;8.702;2022-11-11T13:51:39;11.30;99.90
6903;DHT22;20232;49.408;8.702;2022-11-11T13:54:26;11.20;99.90
6903;DHT22;20232;49.408;8.702;2022-11-11T13:57:00;11.10;99.90
6903;DHT22;20232;49.408;8.702;2022-11-11T13:59:29;10.90;99.90
6903;DHT22;20232;49.408;8.702;2022-11-11T14:02:34;10.80;99.90
6903;DHT22;20232;49.408;8.702;2022-11-11T14:07:46;10.50;99.90
6903;DHT22;20232;49.408;8.702;2022-11-11T14:12:51;10.50;99.90
6903;DHT22;20232;49.408;8.702;2022-11-11T14:15:42;10.50;99.90
6903;DHT22;20232;49.408;8.702;2022-11-11T14:23:23;10.40;99.90
6903;DHT22;20232;49.408;8.702;2022-11-11T14:25:51;10.40;99.90
6903;DHT22;20232;49.408;8.702;2022-11-11T14:28:53;10.40;99.90
6903;DHT22;20232;49.408;8.702;2022-11-11T14:36:49;10.30;99.90
6903;DHT22;20232;49.408;8.702;2022-11-11T14:39:43;10.30;99.90
6903;DHT22;20232;49.408;8.702;2022-11-11T14:47:48;10.30;99.90
6903;DHT22;20232;49.408;8.702;2022-11-11T14:53:15;10.30;99.90
6903;DHT22;20232;49.408;8.702;2022-11-11T14:55:42;10.20;99.90
6903;DHT22;20232;49.408;8.702;2022-11-11T14:58:11;10.20;99.90
6903;DHT22;20232;49.408;8.702;2022-11-11T15:00:54;10.20;99.90
6903;DHT22;20232;49.408;8.702;2022-11-11T15:03:40;10.10;99.90
6903;DHT22;20232;49.408;8.702;2022-11-11T15:06:31;10.10;99.90
6903;DHT22;20232;49.408;8.702;2022-11-11T15:12:19;10.00;99.90
6903;DHT22;20232;49.408;8.702;2022-11-11T15:15:23;10.00;99.90
6903;DHT22;20232;49.408;8.702;2022-11-11T15:18:18;9.90;99.90
6903;DHT22;20232;49.408;8.702;2022-11-11T15:20:59;9.90;99.90
6903;DHT22;20232;49.408;8.702;2022-11-11T15:23:44;9.90;99.90
6903;DHT22;20232;49.408;8.702;2022-11-11T15:26:40;9.90;99.90
6903;DHT22;20232;49.408;8.702;2022-11-11T15:29:36;9.90;99.90
6903;DHT22;20232;49.408;8.702;2022-11-11T15:32:32;9.90;99.90
6903;DHT22;20232;49.408;8.702;2022-11-11T15:38:00;9.90;99.90
6903;DHT22;20232;49.408;8.702;2022-11-11T15:40:41;9.90;99.90
6903;DHT22;20232;49.408;8.702;2022-11-11T15:43:28;9.80;99.90
6903;DHT22;20232;49.408;8.702;2022-11-11T15:45:57;9.80;99.90
6903;DHT22;20232;49.408;8.702;2022-11-11T15:48:29;9.90;99.90
6903;DHT22;20232;49.408;8.702;2022-11-11T15:50:56;9.80;99.90
6903;DHT22;20232;49.408;8.702;2022-11-11T15:53:26;9.90;99.90
6903;DHT22;20232;49.408;8.702;2022-11-11T15:55:56;9.90;99.90
6903;DHT22;20232;49.408;8.702;2022-11-11T15:58:30;9.90;99.90
6903;DHT22;20232;49.408;8.702;2022-11-11T16:00:59;9.90;99.90
6903;DHT22;20232;49.408;8.702;2022-11-11T16:03:45;9.90;99.90
6903;DHT22;20232;49.408;8.702;2022-11-11T16:06:13;10.00;99.90
6903;DHT22;20232;49.408;8.702;2022-11-11T16:08:43;10.00;99.90
6903;DHT22;20232;49.408;8.702;2022-11-11T16:11:14;9.90;99.90
6903;DHT22;20232;49.408;8.702;2022-11-11T16:14:00;9.90;99.90
6903;DHT22;20232;49.408;8.702;2022-11-11T16:16:30;9.80;99.90
6903;DHT22;20232;49.408;8.702;2022-11-11T16:19:23;9.70;99.90
6903;DHT22;20232;49.408;8.702;2022-11-11T16:24:54;9.70;99.90
6903;DHT22;20232;49.408;8.702;2022-11-11T16:27:30;9.80;99.90
6903;DHT22;20232;49.408;8.702;2022-11-11T16:30:32;9.70;99.90
6903;DHT22;20232;49.408;8.702;2022-11-11T16:32:58;9.80;99.90
6903;DHT22;20232;49.408;8.702;2022-11-11T16:35:33;9.80;99.90
6903;DHT22;20232;49.408;8.702;2022-11-11T16:37:59;9.80;99.90
6903;DHT22;20232;49.408;8.702;2022-11-11T16:40:40;9.80;99.90
6903;DHT22;20232;49.408;8.702;2022-11-11T16:43:26;9.90;99.90
6903;DHT22;20232;49.408;8.702;2022-11-11T16:46:13;9.90;99.90
6903;DHT22;20232;49.408;8.702;2022-11-11T16:48:43;9.90;99.90
6903;DHT22;20232;49.408;8.702;2022-11-11T16:54:08;9.90;99.90
6903;DHT22;20232;49.408;8.702;2022-11-11T16:56:36;9.90;99.90
6903;DHT22;20232;49.408;8.702;2022-11-11T16:59:09;9.90;99.90
6903;DHT22;20232;49.408;8.702;2022-11-11T17:01:44;9.90;99.90
6903;DHT22;20232;49.408;8.702;2022-11-11T17:04:11;9.80;99.90
6903;DHT22;20232;49.408;8.702;2022-11-11T17:07:00;9.80;99.90
6903;DHT22;20232;49.408;8.702;2022-11-11T17:09:38;9.80;99.90
6903;DHT22;20232;49.408;8.702;2022-11-11T17:12:05;9.80;99.90
6903;DHT22;20232;49.408;8.702;2022-11-11T17:14:35;9.80;99.90
6903;DHT22;20232;49.408;8.702;2022-11-11T17:17:02;9.80;99.90
6903;DHT22;20232;49.408;8.702;2022-11-11T17:19:29;9.80;99.90
6903;DHT22;20232;49.408;8.702;2022-11-11T17:22:07;9.90;99.90
6903;DHT22;20232;49.408;8.702;2022-11-11T17:24:33;9.90;99.90
6903;DHT22;20232;49.408;8.702;2022-11-11T17:26:59;10.00;99.90
6903;DHT22;20232;49.408;8.702;2022-11-11T17:29:25;9.90;99.90
6903;DHT22;20232;49.408;8.702;2022-11-11T17:31:50;9.90;99.90
6903;DHT22;20232;49.408;8.702;2022-11-11T17:34:16;9.90;99.90
6903;DHT22;20232;49.408;8.702;2022-11-11T17:36:41;9.90;99.90
6903;DHT22;20232;49.408;8.702;2022-11-11T17:39:07;9.80;99.90
6903;DHT22;20232;49.408;8.702;2022-11-11T17:41:32;9.80;99.90
6903;DHT22;20232;49.408;8.702;2022-11-11T17:43:58;9.80;99.90
6903;DHT22;20232;49.408;8.702;2022-11-11T17:46:23;9.80;99.90
6903;DHT22;20232;49.408;8.702;2022-11-11T17:48:52;9.70;99.90
6903;DHT22;20232;49.408;8.702;2022-11-11T17:51:20;9.70;99.90
6903;DHT22;20232;49.408;8.702;2022-11-11T17:53:46;9.70;99.90
6903;DHT22;20232;49.408;8.702;2022-11-11T17:56:11;9.70;99.90
6903;DHT22;20232;49.408;8.702;2022-11-11T17:58:37;9.80;99.90
6903;DHT22;20232;49.408;8.702;2022-11-11T18:01:05;9.80;99.90
6903;DHT22;20232;49.408;8.702;2022-11-11T18:03:30;9.80;99.90
6903;DHT22;20232;49.408;8.702;2022-11-11T18:05:56;9.70;99.90
6903;DHT22;20232;49.408;8.702;2022-11-11T18:08:21;9.70;99.90
6903;DHT22;20232;49.408;8.702;2022-11-11T18:10:47;9.70;99.90
6903;DHT22;20232;49.408;8.702;2022-11-11T18:13:12;9.70;99.90
6903;DHT22;20232;49.408;8.702;2022-11-11T18:15:38;9.80;99.90
6903;DHT22;20232;49.408;8.702;2022-11-11T18:18:03;9.80;99.90
6903;DHT22;20232;49.408;8.702;2022-11-11T18:20:30;9.80;99.90
6903;DHT22;20232;49.408;8.702;2022-11-11T18:22:55;9.80;99.90
6903;DHT22;20232;49.408;8.702;2022-11-11T18:25:21;9.80;99.90
6903;DHT22;20232;49.408;8.702;2022-11-11T18:27:46;9.80;99.90
6903;DHT22;20232;49.408;8.702;2022-11-11T18:30:13;9.80;99.90
6903;DHT22;20232;49.408;8.702;2022-11-11T18:32:39;9.80;99.90
6903;DHT22;20232;49.408;8.702;2022-11-11T18:35:04;9.80;99.90
6903;DHT22;20232;49.408;8.702;2022-11-11T18:37:30;9.70;99.90
6903;DHT22;20232;49.408;8.702;2022-11-11T18:39:56;9.70;99.90
6903;DHT22;20232;49.408;8.702;2022-11-11T18:42:24;9.70;99.90
6903;DHT22;20232;49.408;8.702;2022-11-11T18:44:50;9.70;99.90
6903;DHT22;20232;49.408;8.702;2022-11-11T18:47:15;9.70;99.90
6903;DHT22;20232;49.408;8.702;2022-11-11T18:49:41;9.80;99.90
6903;DHT22;20232;49.408;8.702;2022-11-11T18:52:07;9.80;99.90
6903;DHT22;20232;49.408;8.702;2022-11-11T18:54:32;9.80;99.90
6903;DHT22;20232;49.408;8.702;2022-11-11T18:56:58;9.70;99.90
6903;DHT22;20232;49.408;8.702;2022-11-11T18:59:23;9.70;99.90
6903;DHT22;20232;49.408;8.702;2022-11-11T19:01:49;9.70;99.90
6903;DHT22;20232;49.408;8.702;2022-11-11T19:04:15;9.60;99.90
6903;DHT22;20232;49.408;8.702;2022-11-11T19:06:40;9.60;99.90
6903;DHT22;20232;49.408;8.702;2022-11-11T19:09:09;9.50;99.90
6903;DHT22;20232;49.408;8.702;2022-11-11T19:11:37;9.40;99.90
6903;DHT22;20232;49.408;8.702;2022-11-11T19:14:05;9.40;99.90
6903;DHT22;20232;49.408;8.702;2022-11-11T19:16:31;9.30;99.90
6903;DHT22;20232;49.408;8.702;2022-11-11T19:18:57;9.30;99.90
6903;DHT22;20232;49.408;8.702;2022-11-11T19:21:25;9.20;99.90
6903;DHT22;20232;49.408;8.702;2022-11-11T19:23:53;9.20;99.90
6903;DHT22;20232;49.408;8.702;2022-11-11T19:26:20;9.20;99.90
6903;DHT22;20232;49.408;8.702;2022-11-11T19:28:46;9.20;99.90
6903;DHT22;20232;49.408;8.702;2022-11-11T19:31:14;9.20;99.90
6903;DHT22;20232;49.408;8.702;2022-11-11T19:33:42;9.10;99.90
6903;DHT22;20232;49.408;8.702;2022-11-11T19:36:10;9.10;99.90
6903;DHT22;20232;49.408;8.702;2022-11-11T19:38:36;9.10;99.90
6903;DHT22;20232;49.408;8.702;2022-11-11T19:41:10;9.10;99.90
6903;DHT22;20232;49.408;8.702;2022-11-11T19:43:36;9.10;99.90
6903;DHT22;20232;49.408;8.702;2022-11-11T19:46:04;9.10;99.90
6903;DHT22;20232;49.408;8.702;2022-11-11T19:48:30;9.10;99.90
6903;DHT22;20232;49.408;8.702;2022-11-11T19:50:56;9.10;99.90
6903;DHT22;20232;49.408;8.702;2022-11-11T19:53:26;9.10;99.90
6903;DHT22;20232;49.408;8.702;2022-11-11T19:56:04;9.00;99.90
6903;DHT22;20232;49.408;8.702;2022-11-11T19:58:30;9.00;99.90
6903;DHT22;20232;49.408;8.702;2022-11-11T20:00:56;9.00;99.90
6903;DHT22;20232;49.408;8.702;2022-11-11T20:03:22;9.00;99.90
6903;DHT22;20232;49.408;8.702;2022-11-11T20:05:48;9.00;99.90
6903;DHT22;20232;49.408;8.702;2022-11-11T20:08:14;9.00;99.90
6903;DHT22;20232;49.408;8.702;2022-11-11T20:10:42;9.10;99.90
6903;DHT22;20232;49.408;8.702;2022-11-11T20:13:08;9.10;99.90
6903;DHT22;20232;49.408;8.702;2022-11-11T20:15:34;9.10;99.90
6903;DHT22;20232;49.408;8.702;2022-11-11T20:18:01;9.10;99.90
6903;DHT22;20232;49.408;8.702;2022-11-11T20:20:27;9.10;99.90
6903;DHT22;20232;49.408;8.702;2022-11-11T20:22:53;9.10;99.90
6903;DHT22;20232;49.408;8.702;2022-11-11T20:25:19;9.00;99.90
6903;DHT22;20232;49.408;8.702;2022-11-11T20:27:46;9.00;99.90
6903;DHT22;20232;49.408;8.702;2022-11-11T20:30:12;9.00;99.90
6903;DHT22;20232;49.408;8.702;2022-11-11T20:32:38;9.10;99.90
6903;DHT22;20232;49.408;8.702;2022-11-11T20:35:04;9.00;99.90
6903;DHT22;20232;49.408;8.702;2022-11-11T20:37:30;9.10;99.90
6903;DHT22;20232;49.408;8.702;2022-11-11T20:39:55;9.00;99.90
6903;DHT22;20232;49.408;8.702;2022-11-11T20:42:21;9.00;99.90
6903;DHT22;20232;49.408;8.702;2022-11-11T20:44:47;9.10;99.90
6903;DHT22;20232;49.408;8.702;2022-11-11T20:47:12;9.10;99.90
6903;DHT22;20232;49.408;8.702;2022-11-11T20:49:38;9.00;99.90
6903;DHT22;20232;49.408;8.702;2022-11-11T20:52:03;9.00;99.90
6903;DHT22;20232;49.408;8.702;2022-11-11T20:54:29;9.00;99.90
6903;DHT22;20232;49.408;8.702;2022-11-11T20:56:54;9.00;99.90
6903;DHT22;20232;49.408;8.702;2022-11-11T20:59:20;9.00;99.90
6903;DHT22;20232;49.408;8.702;2022-11-11T21:01:46;8.90;99.90
6903;DHT22;20232;49.408;8.702;2022-11-11T21:04:11;8.80;99.90
6903;DHT22;20232;49.408;8.702;2022-11-11T21:06:37;8.80;99.90
6903;DHT22;20232;49.408;8.702;2022-11-11T21:09:04;8.70;99.90
6903;DHT22;20232;49.408;8.702;2022-11-11T21:11:31;8.70;99.90
6903;DHT22;20232;49.408;8.702;2022-11-11T21:13:57;8.70;99.90
6903;DHT22;20232;49.408;8.702;2022-11-11T21:16:27;8.60;99.90
6903;DHT22;20232;49.408;8.702;2022-11-11T21:18:54;8.60;99.90
6903;DHT22;20232;49.408;8.702;2022-11-11T21:21:29;8.70;99.90
6903;DHT22;20232;49.408;8.702;2022-11-11T21:23:56;8.70;99.90
6903;DHT22;20232;49.408;8.702;2022-11-11T21:26:22;8.80;99.90
6903;DHT22;20232;49.408;8.702;2022-11-11T21:28:48;8.80;99.90
6903;DHT22;20232;49.408;8.702;2022-11-11T21:31:19;8.90;99.90
6903;DHT22;20232;49.408;8.702;2022-11-11T21:33:54;8.90;99.90
6903;DHT22;20232;49.408;8.702;2022-11-11T21:36:21;8.90;99.90
6903;DHT22;20232;49.408;8.702;2022-11-11T21:38:47;9.00;99.90
6903;DHT22;20232;49.408;8.702;2022-11-11T21:41:16;9.00;99.90
6903;DHT22;20232;49.408;8.702;2022-11-11T21:43:42;9.00;99.90
6903;DHT22;20232;49.408;8.702;2022-11-11T21:46:10;9.00;99.90
6903;DHT22;20232;49.408;8.702;2022-11-11T21:53:40;8.90;99.90
6903;DHT22;20232;49.408;8.702;2022-11-11T21:56:13;8.90;99.90
6903;DHT22;20232;49.408;8.702;2022-11-11T21:58:40;8.90;99.90
6903;DHT22;20232;49.408;8.702;2022-11-11T22:01:14;8.80;99.90
6903;DHT22;20232;49.408;8.702;2022-11-11T22:03:42;8.80;99.90
6903;DHT22;20232;49.408;8.702;2022-11-11T22:06:10;8.80;99.90
6903;DHT22;20232;49.408;8.702;2022-11-11T22:08:36;8.80;99.90
6903;DHT22;20232;49.408;8.702;2022-11-11T22:11:13;8.70;99.90
6903;DHT22;20232;49.408;8.702;2022-11-11T22:13:39;8.70;99.90
6903;DHT22;20232;49.408;8.702;2022-11-11T22:16:08;8.70;99.90
6903;DHT22;20232;49.408;8.702;2022-11-11T22:18:34;8.70;99.90
6903;DHT22;20232;49.408;8.702;2022-11-11T22:21:07;8.50;99.90
6903;DHT22;20232;49.408;8.702;2022-11-11T22:23:33;8.50;99.90
6903;DHT22;20232;49.408;8.702;2022-11-11T22:26:08;8.50;99.90
6903;DHT22;20232;49.408;8.702;2022-11-11T22:28:35;8.40;99.90
6903;DHT22;20232;49.408;8.702;2022-11-11T22:31:10;8.40;99.90
6903;DHT22;20232;49.408;8.702;2022-11-11T22:33:37;8.50;99.90
6903;DHT22;20232;49.408;8.702;2022-11-11T22:36:05;8.50;99.90
6903;DHT22;20232;49.408;8.702;2022-11-11T22:38:32;8.50;99.90
6903;DHT22;20232;49.408;8.702;2022-11-11T22:41:06;8.50;99.90
6903;DHT22;20232;49.408;8.702;2022-11-11T22:43:37;8.50;99.90
6903;DHT22;20232;49.408;8.702;2022-11-11T22:46:04;8.50;99.90
6903;DHT22;20232;49.408;8.702;2022-11-11T22:48:32;8.50;99.90